createdAt,value
2022-10-19T00:01:18.680Z,102151.94
2022-10-19T00:06:26.789Z,102146.84
2022-10-19T00:08:56.852Z,102147.16
2022-10-19T00:11:25.563Z,102144.94
2022-10-19T00:13:55.204Z,102151.78
2022-10-19T00:16:26.249Z,102157.19
2022-10-19T00:18:58.382Z,102147.97
2022-10-19T00:21:26.679Z,102153.69
2022-10-19T00:23:54.675Z,102145.41
2022-10-19T00:26:22.658Z,102148.44
2022-10-19T00:28:50.705Z,102157.53
2022-10-19T00:31:19.332Z,102142.25
2022-10-19T00:33:48.758Z,102149.88
2022-10-19T00:36:19.730Z,102127.44
2022-10-19T00:38:47.880Z,102151.28
2022-10-19T00:41:16.065Z,102153.22
2022-10-19T00:43:57.935Z,102164.19
2022-10-19T00:46:30.105Z,102169.59
2022-10-19T00:49:05.874Z,102149.56
2022-10-19T00:51:40.477Z,102152.41
2022-10-19T00:54:10.388Z,102151.44
2022-10-19T00:56:42.948Z,102152.25
2022-10-19T00:59:13.932Z,102154.16
2022-10-19T01:01:43.334Z,102142.41
2022-10-19T01:04:13.732Z,102137.94
2022-10-19T01:06:42.917Z,102128.41
2022-10-19T01:09:10.958Z,102136.03
2022-10-19T01:11:54.027Z,102121.84
2022-10-19T01:14:41.232Z,102123.78
2022-10-19T01:17:22.445Z,102120.44
2022-10-19T01:20:49.943Z,102115.66
2022-10-19T01:24:18.914Z,102109.47
2022-10-19T01:27:28.572Z,102106.59
2022-10-19T01:30:14.558Z,102111.53
2022-10-19T01:33:05.720Z,102115.03
2022-10-19T01:35:41.460Z,102110.72
2022-10-19T01:38:27.447Z,102117.25
2022-10-19T01:41:06.900Z,102117.41
2022-10-19T01:43:44.052Z,102120.59
2022-10-19T01:46:20.232Z,102120.28
2022-10-19T01:48:55.833Z,102113.28
2022-10-19T01:51:31.687Z,102126.00
2022-10-19T01:54:06.426Z,102120.28
2022-10-19T01:56:38.592Z,102122.69
2022-10-19T01:59:10.664Z,102116.00
2022-10-19T02:01:46.010Z,102117.75
2022-10-19T02:04:18.410Z,102108.03
2022-10-19T02:06:46.607Z,102106.28
2022-10-19T02:09:18.042Z,102111.53
2022-10-19T02:11:52.254Z,102119.47
2022-10-19T02:14:28.641Z,102116.00
2022-10-19T02:17:06.245Z,102109.47
2022-10-19T02:19:35.477Z,102115.97
2022-10-19T02:22:03.975Z,102120.75
2022-10-19T02:24:31.870Z,102110.75
2022-10-19T02:27:01.732Z,102117.59
2022-10-19T02:29:29.564Z,102119.47
2022-10-19T02:31:58.906Z,102120.13
2022-10-19T02:34:27.159Z,102116.63
2022-10-19T02:36:55.277Z,102127.75
2022-10-19T02:39:23.918Z,102118.22
2022-10-19T02:42:01.600Z,102120.91
2022-10-19T02:44:37.293Z,102114.56
2022-10-19T02:47:13.299Z,102108.06
2022-10-19T02:49:43.454Z,102127.28
2022-10-19T02:52:13.544Z,102123.47
2022-10-19T02:54:45.050Z,102120.63
2022-10-19T02:57:19.744Z,102125.53
2022-10-19T02:59:48.223Z,102126.16
2022-10-19T03:02:19.592Z,102118.06
2022-10-19T03:07:22.497Z,102128.88
2022-10-19T03:09:50.872Z,102131.28
2022-10-19T03:12:19.291Z,102128.56
2022-10-19T03:14:47.080Z,102127.75
2022-10-19T03:17:17.805Z,102135.03
2022-10-19T03:19:46.973Z,102128.69
2022-10-19T03:22:15.799Z,102127.09
2022-10-19T03:24:43.502Z,102135.22
2022-10-19T03:27:11.291Z,102137.47
2022-10-19T03:29:39.042Z,102143.50
2022-10-19T03:32:06.948Z,102137.63
2022-10-19T03:34:34.710Z,102151.78
2022-10-19T03:37:03.919Z,102144.88
2022-10-19T03:39:31.735Z,102142.38
2022-10-19T03:41:59.437Z,102143.50
2022-10-19T03:44:27.558Z,102148.72
2022-10-19T03:46:55.375Z,102154.16
2022-10-19T03:49:23.385Z,102155.69
2022-10-19T03:51:51.149Z,102159.88
2022-10-19T03:54:22.510Z,102154.63
2022-10-19T03:56:54.163Z,102151.59
2022-10-19T03:59:23.007Z,102161.94
2022-10-19T04:01:50.733Z,102157.81
2022-10-19T04:04:20.462Z,102165.56
2022-10-19T04:06:51.157Z,102168.44
2022-10-19T04:09:23.597Z,102170.31
2022-10-19T04:11:52.009Z,102167.63
2022-10-19T04:14:32.272Z,102172.06
2022-10-19T04:17:01.705Z,102175.59
2022-10-19T04:19:29.898Z,102164.91
2022-10-19T04:21:58.234Z,102184.28
2022-10-19T04:24:27.512Z,102178.56
2022-10-19T04:26:57.672Z,102183.19
2022-10-19T04:29:29.876Z,102172.97
2022-10-19T04:31:58.558Z,102194.16
2022-10-19T04:34:26.327Z,102193.22
2022-10-19T04:36:54.991Z,102190.50
2022-10-19T04:39:22.825Z,102183.53
2022-10-19T04:41:52.030Z,102193.50
2022-10-19T04:44:19.858Z,102193.66
2022-10-19T04:46:47.744Z,102200.38
2022-10-19T04:49:18.011Z,102195.28
2022-10-19T04:51:47.999Z,102201.66
2022-10-19T04:54:15.880Z,102198.44
2022-10-19T04:56:43.909Z,102199.84
2022-10-19T04:59:13.067Z,102195.41
2022-10-19T05:01:46.404Z,102201.00
2022-10-19T05:04:15.159Z,102197.50
2022-10-19T05:06:42.924Z,102206.09
2022-10-19T05:09:10.677Z,102196.56
2022-10-19T05:11:38.431Z,102200.38
2022-10-19T05:14:06.253Z,102205.31
2022-10-19T05:16:35.396Z,102205.59
2022-10-19T05:19:03.620Z,102214.03
2022-10-19T05:21:31.976Z,102212.13
2022-10-19T05:23:59.739Z,102211.47
2022-10-19T05:26:29.542Z,102219.25
2022-10-19T05:29:01.639Z,102216.03
2022-10-19T05:31:32.573Z,102209.16
2022-10-19T05:34:03.980Z,102209.31
2022-10-19T05:36:35.114Z,102209.25
2022-10-19T05:39:07.053Z,102212.78
2022-10-19T05:41:35.410Z,102215.16
2022-10-19T05:44:04.829Z,102219.59
2022-10-19T05:46:34.404Z,102228.03
2022-10-19T05:49:04.327Z,102204.38
2022-10-19T05:51:32.114Z,102232.22
2022-10-19T05:54:00.318Z,102230.44
2022-10-19T05:56:30.850Z,102238.31
2022-10-19T05:59:01.303Z,102240.16
2022-10-19T06:01:31.140Z,102231.78
2022-10-19T06:04:01.205Z,102232.44
2022-10-19T06:06:32.684Z,102235.25
2022-10-19T06:09:01.404Z,102206.25
2022-10-19T06:11:31.974Z,102240.97
2022-10-19T06:14:02.384Z,102249.41
2022-10-19T06:16:34.397Z,102246.47
2022-10-19T06:19:02.533Z,102252.72
2022-10-19T06:21:33.188Z,102254.63
2022-10-19T06:24:03.514Z,102242.56
2022-10-19T06:26:33.904Z,102250.94
2022-10-19T06:29:03.176Z,102255.13
2022-10-19T06:31:33.051Z,102248.78
2022-10-19T06:34:01.024Z,102260.88
2022-10-19T06:36:32.706Z,102259.75
2022-10-19T06:39:01.943Z,102261.34
2022-10-19T06:41:30.753Z,102262.53
2022-10-19T06:43:58.668Z,102256.47
2022-10-19T06:46:27.969Z,102259.53
2022-10-19T06:48:58.628Z,102260.34
2022-10-19T06:51:29.690Z,102265.06
2022-10-19T06:53:59.031Z,102273.53
2022-10-19T06:56:27.841Z,102278.59
2022-10-19T06:58:56.291Z,102275.47
2022-10-19T07:01:25.206Z,102279.34
2022-10-19T07:03:53.675Z,102276.41
2022-10-19T07:06:22.403Z,102278.56
2022-10-19T07:08:50.628Z,102271.34
2022-10-19T07:11:22.344Z,102274.06
2022-10-19T07:13:51.070Z,102276.97
2022-10-19T07:16:21.059Z,102276.19
2022-10-19T07:18:51.420Z,102282.09
2022-10-19T07:21:20.613Z,102285.19
2022-10-19T07:23:49.372Z,102298.59
2022-10-19T07:26:23.432Z,102298.75
2022-10-19T07:28:52.424Z,102298.91
2022-10-19T07:31:23.869Z,102302.38
2022-10-19T07:33:54.910Z,102296.53
2022-10-19T07:36:24.341Z,102294.47
2022-10-19T07:38:52.788Z,102300.03
2022-10-19T07:41:24.648Z,102290.53
2022-10-19T07:43:53.053Z,102307.09
2022-10-19T07:46:23.564Z,102290.06
2022-10-19T07:48:51.330Z,102296.13
2022-10-19T07:51:20.948Z,102298.97
2022-10-19T07:53:49.203Z,102310.28
2022-10-19T07:56:20.768Z,102302.44
2022-10-19T07:58:52.645Z,102308.97
2022-10-19T08:01:23.593Z,102307.56
2022-10-19T08:06:41.831Z,102308.22
2022-10-19T08:09:11.499Z,102299.16
2022-10-19T08:11:43.464Z,102306.78
2022-10-19T08:14:12.820Z,102300.25
2022-10-19T08:16:44.438Z,102302.97
2022-10-19T08:19:14.897Z,102309.03
2022-10-19T08:21:45.537Z,102313.94
2022-10-19T08:24:16.211Z,102301.34
2022-10-19T08:26:45.062Z,102315.88
2022-10-19T08:29:17.912Z,102299.94
2022-10-19T08:31:48.218Z,102315.56
2022-10-19T08:34:17.110Z,102313.44
2022-10-19T08:36:46.085Z,102311.47
2022-10-19T08:39:16.279Z,102300.22
2022-10-19T08:42:03.766Z,102322.56
2022-10-19T08:45:00.913Z,102310.34
2022-10-19T08:47:57.711Z,102309.00
2022-10-19T08:50:30.260Z,102305.41
2022-10-19T08:53:04.532Z,102306.66
2022-10-19T08:55:50.660Z,102291.25
2022-10-19T08:58:41.450Z,102308.25
2022-10-19T09:01:36.823Z,102301.88
2022-10-19T09:04:14.095Z,102300.50
2022-10-19T09:07:11.855Z,102296.94
2022-10-19T09:12:20.612Z,102307.09
2022-10-19T09:14:58.763Z,102296.59
2022-10-19T09:17:29.213Z,102314.69
2022-10-19T09:19:58.123Z,102303.44
2022-10-19T09:22:33.404Z,102293.38
2022-10-19T09:25:10.461Z,102306.06
2022-10-19T09:27:41.583Z,102300.53
2022-10-19T09:30:21.048Z,102307.81
2022-10-19T09:32:59.714Z,102313.63
2022-10-19T09:35:32.923Z,102304.13
2022-10-19T09:38:01.392Z,102308.09
2022-10-19T09:40:31.852Z,102315.69
2022-10-19T09:43:03.800Z,102314.84
2022-10-19T09:45:42.152Z,102315.38
2022-10-19T09:48:26.503Z,102314.41
2022-10-19T09:51:00.376Z,102319.84
2022-10-19T09:53:30.192Z,102320.28
2022-10-19T09:56:04.843Z,102327.00
2022-10-19T09:58:33.326Z,102318.09
2022-10-19T10:01:03.418Z,102320.91
2022-10-19T10:03:36.195Z,102301.13
2022-10-19T10:06:08.740Z,102316.94
2022-10-19T10:08:40.304Z,102310.03
2022-10-19T10:11:13.938Z,102312.38
2022-10-19T10:13:49.174Z,102315.69
2022-10-19T10:19:14.220Z,102315.03
2022-10-19T10:21:50.353Z,102307.06
2022-10-19T10:24:21.678Z,102308.84
2022-10-19T10:26:52.483Z,102305.22
2022-10-19T10:29:24.302Z,102300.84
2022-10-19T10:31:56.597Z,102302.78
2022-10-19T10:34:45.994Z,102311.16
2022-10-19T10:37:22.888Z,102319.78
2022-10-19T10:39:56.600Z,102314.84
2022-10-19T10:42:34.972Z,102317.66
2022-10-19T10:45:04.971Z,102310.19
2022-10-19T10:47:33.175Z,102303.31
2022-10-19T10:50:07.476Z,102302.75
2022-10-19T10:52:37.212Z,102311.81
2022-10-19T10:55:18.864Z,102312.13
2022-10-19T10:57:52.843Z,102313.72
2022-10-19T11:00:24.032Z,102311.91
2022-10-19T11:02:59.146Z,102313.28
2022-10-19T11:05:32.727Z,102312.81
2022-10-19T11:08:15.572Z,102305.78
2022-10-19T11:10:52.558Z,102307.72
2022-10-19T11:13:30.834Z,102313.63
2022-10-19T11:16:05.096Z,102307.09
2022-10-19T11:18:42.577Z,102300.59
2022-10-19T11:21:21.098Z,102305.38
2022-10-19T11:24:02.847Z,102311.56
2022-10-19T11:27:02.780Z,102309.97
2022-10-19T11:29:59.257Z,102298.78
2022-10-19T11:32:39.511Z,102298.34
2022-10-19T11:35:30.766Z,102297.09
2022-10-19T11:38:20.710Z,102288.03
2022-10-19T11:44:20.468Z,102283.47
2022-10-19T11:47:09.415Z,102267.13
2022-10-19T11:49:59.991Z,102280.03
2022-10-19T11:52:46.429Z,102272.97
2022-10-19T11:55:32.059Z,102287.00
2022-10-19T11:58:20.323Z,102284.97
2022-10-19T12:00:57.747Z,102278.25
2022-10-19T12:04:02.495Z,102281.66
2022-10-19T12:06:41.981Z,102277.31
2022-10-19T12:09:32.085Z,102278.03
2022-10-19T12:12:30.685Z,102279.47
2022-10-19T12:15:18.566Z,102279.53
2022-10-19T12:17:52.713Z,102276.03
2022-10-19T12:20:30.857Z,102269.38
2022-10-19T12:23:01.034Z,102272.97
2022-10-19T12:25:29.955Z,102269.59
2022-10-19T12:27:59.560Z,102268.75
2022-10-19T12:30:27.541Z,102269.66
2022-10-19T12:33:15.532Z,102271.19
2022-10-19T12:36:05.524Z,102273.72
2022-10-19T12:38:51.000Z,102272.56
2022-10-19T12:41:34.757Z,102267.94
2022-10-19T12:44:29.417Z,102268.38
2022-10-19T12:47:08.456Z,102260.72
2022-10-19T12:49:44.358Z,102265.53
2022-10-19T12:52:14.873Z,102264.84
2022-10-19T12:54:44.790Z,102267.09
2022-10-19T12:57:31.014Z,102254.47
2022-10-19T13:00:07.327Z,102267.84
2022-10-19T13:02:39.635Z,102255.25
2022-10-19T13:05:08.065Z,102261.38
2022-10-19T13:07:37.635Z,102254.50
2022-10-19T13:10:19.360Z,102255.75
2022-10-19T13:12:48.670Z,102233.69
2022-10-19T13:15:59.941Z,102247.53
2022-10-19T13:19:24.815Z,102250.41
2022-10-19T13:22:29.589Z,102244.84
2022-10-19T13:25:27.211Z,102242.72
2022-10-19T13:28:00.844Z,102247.88
2022-10-19T13:31:09.322Z,102241.97
2022-10-19T13:33:50.115Z,102237.41
2022-10-19T13:36:19.892Z,102235.22
2022-10-19T13:39:03.697Z,102236.59
2022-10-19T13:41:54.498Z,102235.22
2022-10-19T13:44:28.902Z,102227.16
2022-10-19T13:47:20.296Z,102209.34
2022-10-19T13:50:33.507Z,102233.53
2022-10-19T13:53:32.835Z,102236.47
2022-10-19T13:56:38.762Z,102235.53
2022-10-19T13:59:57.846Z,102235.16
2022-10-19T14:03:06.607Z,102240.06
2022-10-19T14:06:07.437Z,102237.41
2022-10-19T14:09:16.692Z,102236.34
2022-10-19T14:11:49.346Z,102226.94
2022-10-19T14:14:21.943Z,102221.97
2022-10-19T14:16:57.113Z,102210.78
2022-10-19T14:19:31.165Z,102217.41
2022-10-19T14:22:01.714Z,102217.69
2022-10-19T14:24:34.157Z,102216.09
2022-10-19T14:27:07.697Z,102219.53
2022-10-19T14:29:46.309Z,102212.09
2022-10-19T14:32:14.693Z,102212.72
2022-10-19T14:34:43.723Z,102209.25
2022-10-19T14:37:19.688Z,102217.38
2022-10-19T14:40:06.366Z,102218.47
2022-10-19T14:42:43.833Z,102207.94
2022-10-19T14:45:17.819Z,102205.94
2022-10-19T14:48:01.499Z,102203.31
2022-10-19T14:50:43.037Z,102199.38
2022-10-19T14:53:35.098Z,102200.66
2022-10-19T14:56:09.244Z,102187.88
2022-10-19T14:58:45.632Z,102208.78
2022-10-19T15:01:13.916Z,102193.50
2022-10-19T15:03:45.049Z,102190.09
2022-10-19T15:06:22.680Z,102207.03
2022-10-19T15:11:32.185Z,102196.22
2022-10-19T15:14:07.296Z,102199.56
2022-10-19T15:16:53.264Z,102189.31
2022-10-19T15:19:28.726Z,102202.34
2022-10-19T15:22:18.910Z,102192.16
2022-10-19T15:25:26.685Z,102190.97
2022-10-19T15:27:54.628Z,102195.16
2022-10-19T15:30:30.283Z,102197.28
2022-10-19T15:33:15.609Z,102189.94
2022-10-19T15:35:45.629Z,102213.06
2022-10-19T15:38:22.406Z,102210.59
2022-10-19T15:40:56.607Z,102202.38
2022-10-19T15:43:46.395Z,102210.91
2022-10-19T15:47:00.707Z,102214.16
2022-10-19T15:49:55.768Z,102209.66
2022-10-19T15:52:26.051Z,102209.84
2022-10-19T15:54:56.493Z,102210.72
2022-10-19T15:57:30.354Z,102220.00
2022-10-19T16:00:01.489Z,102217.72
2022-10-19T16:02:30.734Z,102217.84
2022-10-19T16:04:58.737Z,102222.59
2022-10-19T16:07:31.287Z,102220.13
2022-10-19T16:10:00.124Z,102223.41
2022-10-19T16:12:28.222Z,102225.47
2022-10-19T16:14:56.423Z,102233.03
2022-10-19T16:17:24.709Z,102233.78
2022-10-19T16:19:53.981Z,102234.31
2022-10-19T16:22:21.806Z,102249.75
2022-10-19T16:24:49.601Z,102250.22
2022-10-19T16:27:17.556Z,102264.06
2022-10-19T16:29:45.720Z,102261.53
2022-10-19T16:32:13.726Z,102263.81
2022-10-19T16:34:41.700Z,102271.78
2022-10-19T16:37:10.877Z,102265.56
2022-10-19T16:39:38.847Z,102268.25
2022-10-19T16:42:06.715Z,102272.25
2022-10-19T16:44:34.425Z,102273.97
2022-10-19T16:47:02.330Z,102277.78
2022-10-19T16:49:30.369Z,102286.22
2022-10-19T16:52:02.911Z,102298.81
2022-10-19T16:54:40.749Z,102293.25
2022-10-19T16:57:12.968Z,102292.28
2022-10-19T16:59:46.528Z,102286.19
2022-10-19T17:02:21.229Z,102293.88
2022-10-19T17:04:56.346Z,102299.59
2022-10-19T17:07:29.337Z,102286.84
2022-10-19T17:10:03.138Z,102278.91
2022-10-19T17:12:34.396Z,102289.66
2022-10-19T17:15:40.998Z,102291.84
2022-10-19T17:18:09.551Z,102299.94
2022-10-19T17:20:45.701Z,102299.75
2022-10-19T17:23:18.677Z,102302.63
2022-10-19T17:25:51.033Z,102301.16
2022-10-19T17:28:24.128Z,102309.84
2022-10-19T17:30:55.147Z,102308.97
2022-10-19T17:33:27.395Z,102302.97
2022-10-19T17:35:58.883Z,102311.69
2022-10-19T17:38:34.736Z,102316.97
2022-10-19T17:41:11.332Z,102306.16
2022-10-19T17:43:48.539Z,102305.34
2022-10-19T17:46:24.698Z,102301.00
2022-10-19T17:48:53.367Z,102316.75
2022-10-19T17:51:23.619Z,102313.53
2022-10-19T17:53:59.397Z,102298.34
2022-10-19T17:56:45.863Z,102315.41
2022-10-19T17:59:30.160Z,102314.88
2022-10-19T18:02:13.009Z,102327.72
2022-10-19T18:04:46.949Z,102334.00
2022-10-19T18:07:20.479Z,102332.59
2022-10-19T18:09:48.512Z,102326.25
2022-10-19T18:12:17.740Z,102325.56
2022-10-19T18:14:46.297Z,102329.66
2022-10-19T18:17:14.059Z,102333.31
2022-10-19T18:19:41.794Z,102329.31
2022-10-19T18:22:09.603Z,102336.31
2022-10-19T18:24:37.388Z,102337.41
2022-10-19T18:27:05.266Z,102347.81
2022-10-19T18:29:34.561Z,102343.63
2022-10-19T18:32:02.319Z,102345.69
2022-10-19T18:34:30.207Z,102352.69
2022-10-19T18:36:58.070Z,102343.41
2022-10-19T18:39:25.836Z,102346.41
2022-10-19T18:41:55.143Z,102343.84
2022-10-19T18:44:27.067Z,102341.13
2022-10-19T18:46:58.481Z,102341.19
2022-10-19T18:49:26.584Z,102344.22
2022-10-19T18:51:55.836Z,102344.09
2022-10-19T18:54:24.584Z,102344.00
2022-10-19T18:56:52.747Z,102344.50
2022-10-19T18:59:20.697Z,102335.81
2022-10-19T19:01:52.013Z,102330.94
2022-10-19T19:04:21.290Z,102332.63
2022-10-19T19:06:49.214Z,102319.94
2022-10-19T19:09:18.838Z,102332.81
2022-10-19T19:11:46.717Z,102318.31
2022-10-19T19:14:17.446Z,102312.06
2022-10-19T19:16:46.743Z,102322.44
2022-10-19T19:19:17.764Z,102324.13
2022-10-19T19:21:47.745Z,102329.00
2022-10-19T19:24:18.427Z,102311.44
2022-10-19T19:26:51.221Z,102324.50
2022-10-19T19:29:20.585Z,102325.47
2022-10-19T19:31:48.970Z,102319.53
2022-10-19T19:34:17.075Z,102331.72
2022-10-19T19:36:48.168Z,102331.19
2022-10-19T19:39:19.865Z,102301.72
2022-10-19T19:41:48.641Z,102316.59
2022-10-19T19:44:17.234Z,102321.97
2022-10-19T19:46:45.215Z,102315.88
2022-10-19T19:49:13.067Z,102317.19
2022-10-19T19:51:40.836Z,102311.09
2022-10-19T19:54:11.155Z,102321.41
2022-10-19T19:56:40.002Z,102316.34
2022-10-19T19:59:07.825Z,102329.16
2022-10-19T20:01:37.235Z,102325.50
2022-10-19T20:04:06.870Z,102328.19
2022-10-19T20:06:37.121Z,102333.22
2022-10-19T20:09:06.663Z,102321.88
2022-10-19T20:11:38.422Z,102329.06
2022-10-19T20:14:09.176Z,102323.81
2022-10-19T20:16:37.236Z,102320.41
2022-10-19T20:19:09.315Z,102328.25
2022-10-19T20:21:38.230Z,102318.88
2022-10-19T20:24:06.894Z,102333.44
2022-10-19T20:26:36.078Z,102331.75
2022-10-19T20:29:05.687Z,102338.03
2022-10-19T20:31:39.154Z,102333.78
2022-10-19T20:34:13.574Z,102334.31
2022-10-19T20:36:41.397Z,102318.91
2022-10-19T20:39:09.736Z,102326.13
2022-10-19T20:41:39.025Z,102334.97
2022-10-19T20:44:07.032Z,102340.56
2022-10-19T20:46:36.935Z,102348.44
2022-10-19T20:49:05.131Z,102347.25
2022-10-19T20:51:36.694Z,102333.78
2022-10-19T20:54:09.258Z,102345.00
2022-10-19T20:56:41.381Z,102350.28
2022-10-19T20:59:13.649Z,102358.09
2022-10-19T21:01:43.287Z,102353.78
2022-10-19T21:04:13.043Z,102345.44
2022-10-19T21:06:43.516Z,102336.84
2022-10-19T21:09:13.528Z,102350.25
2022-10-19T21:11:45.116Z,102346.72
2022-10-19T21:14:15.626Z,102356.38
2022-10-19T21:16:43.995Z,102344.78
2022-10-19T21:19:14.399Z,102350.50
2022-10-19T21:21:44.761Z,102348.47
2022-10-19T21:24:16.312Z,102353.75
2022-10-19T21:26:46.150Z,102348.41
2022-10-19T21:29:18.011Z,102340.91
2022-10-19T21:31:49.099Z,102345.91
2022-10-19T21:34:20.157Z,102342.88
2022-10-19T21:36:48.547Z,102347.78
2022-10-19T21:39:16.954Z,102344.19
2022-10-19T21:41:46.740Z,102336.19
2022-10-19T21:44:15.487Z,102341.22
2022-10-19T21:46:43.986Z,102337.44
2022-10-19T21:49:12.953Z,102323.63
2022-10-19T21:51:46.084Z,102333.94
2022-10-19T21:54:17.165Z,102332.13
2022-10-19T21:56:47.685Z,102336.19
2022-10-19T21:59:16.549Z,102335.19
2022-10-19T22:01:44.724Z,102318.59
2022-10-19T22:04:15.095Z,102333.38
2022-10-19T22:06:44.034Z,102332.03
2022-10-19T22:09:16.769Z,102323.16
2022-10-19T22:11:46.649Z,102315.31
2022-10-19T22:14:16.890Z,102323.38
2022-10-19T22:16:45.282Z,102313.25
2022-10-19T22:19:14.161Z,102313.69
2022-10-19T22:21:42.236Z,102316.47
2022-10-19T22:24:14.443Z,102317.22
2022-10-19T22:26:47.355Z,102307.66
2022-10-19T22:29:15.218Z,102297.94
2022-10-19T22:31:44.538Z,102303.91
2022-10-19T22:34:16.570Z,102299.72
2022-10-19T22:36:45.468Z,102292.97
2022-10-19T22:39:14.082Z,102290.22
2022-10-19T22:41:41.865Z,102288.50
2022-10-19T22:44:11.030Z,102286.81
2022-10-19T22:46:38.830Z,102286.56
2022-10-19T22:49:06.687Z,102295.66
2022-10-19T22:51:34.415Z,102288.97
2022-10-19T22:54:02.254Z,102287.47
2022-10-19T22:56:30.247Z,102286.38
2022-10-19T22:59:00.008Z,102286.56
2022-10-19T23:01:29.684Z,102278.91
2022-10-19T23:03:57.353Z,102287.00
2022-10-19T23:06:25.466Z,102279.38
2022-10-19T23:08:54.416Z,102279.84
2022-10-19T23:11:22.685Z,102273.88
2022-10-19T23:13:50.658Z,102282.16
2022-10-19T23:16:18.482Z,102281.88
2022-10-19T23:18:47.582Z,102283.28
2022-10-19T23:21:16.391Z,102276.34
2022-10-19T23:23:44.826Z,102281.41
2022-10-19T23:26:15.894Z,102274.22
2022-10-19T23:28:46.031Z,102292.47
2022-10-19T23:31:16.258Z,102295.72
2022-10-19T23:33:44.579Z,102293.78
2022-10-19T23:36:17.832Z,102297.22
2022-10-19T23:38:46.875Z,102296.25
2022-10-19T23:41:15.536Z,102295.63
2022-10-19T23:43:43.753Z,102293.78
2022-10-19T23:46:12.659Z,102297.00
2022-10-19T23:48:41.670Z,102294.78
2022-10-19T23:51:12.772Z,102291.59
2022-10-19T23:53:44.954Z,102286.13
2022-10-19T23:56:16.620Z,102288.59
2022-10-19T23:58:45.467Z,102295.56
